Time;durP1;ratioP1;P1;durP2;ratioP2;P2;SDS_P1;SDS_P2;PMS_P1;PMS_P2;Temp;Humidity;BMP_temperature;BMP_pressure;BME280_temperature;BME280_humidity;BME280_pressure;Samples;Min_cycle;Max_cycle;Signal;HPM_P1;HPM_P2
2021/05/09 00:00:24;;;;;;;5.40;3.28;;;;;;;;;;10230413;28;20065;-68
2021/05/09 00:05:20;;;;;;;9.02;3.55;;;;;;;;;;10224380;28;20275;-66
2021/05/09 00:10:16;;;;;;;5.30;3.13;;;;;;;;;;10229418;28;20052;-69
2021/05/09 00:15:13;;;;;;;5.43;3.55;;;;;;;;;;10230375;28;20076;-69
2021/05/09 00:20:12;;;;;;;5.75;3.35;;;;;;;;;;10216960;28;20053;-70
2021/05/09 00:25:09;;;;;;;5.00;3.20;;;;;;;;;;10238959;28;20049;-68
2021/05/09 00:30:05;;;;;;;5.88;3.60;;;;;;;;;;10227880;28;20057;-69
2021/05/09 00:35:01;;;;;;;6.40;3.40;;;;;;;;;;10227838;28;20107;-68
2021/05/09 00:39:57;;;;;;;5.15;3.15;;;;;;;;;;10267274;28;20048;-70
2021/05/09 00:44:52;;;;;;;5.55;3.13;;;;;;;;;;10240146;28;20470;-70
2021/05/09 00:49:48;;;;;;;5.43;3.10;;;;;;;;;;10240150;28;20415;-70
2021/05/09 00:55:04;;;;;;;6.28;3.55;;;;;;;;;;10232189;28;20110;-70
2021/05/09 01:00:01;;;;;;;5.10;3.35;;;;;;;;;;10226992;28;20054;-70
2021/05/09 01:04:58;;;;;;;4.72;3.03;;;;;;;;;;10232002;28;20057;-67
2021/05/09 01:09:54;;;;;;;4.97;2.75;;;;;;;;;;10226457;28;20041;-66
2021/05/09 01:14:50;;;;;;;5.65;2.80;;;;;;;;;;10238000;28;20596;-66
2021/05/09 01:19:46;;;;;;;6.57;3.55;;;;;;;;;;10213249;28;20045;-66
2021/05/09 01:24:42;;;;;;;5.80;2.78;;;;;;;;;;10228732;28;20049;-66
2021/05/09 01:29:38;;;;;;;5.18;2.97;;;;;;;;;;10226226;28;20042;-67
2021/05/09 01:34:37;;;;;;;5.25;3.35;;;;;;;;;;10239367;28;20080;-68
2021/05/09 01:39:33;;;;;;;7.50;2.67;;;;;;;;;;10224331;28;20122;-68
2021/05/09 01:44:29;;;;;;;4.57;2.75;;;;;;;;;;10240366;28;20416;-67
2021/05/09 01:49:25;;;;;;;7.00;2.85;;;;;;;;;;10227216;28;20143;-66
2021/05/09 01:54:21;;;;;;;5.85;2.63;;;;;;;;;;10225725;28;20060;-66
2021/05/09 01:59:17;;;;;;;5.50;2.85;;;;;;;;;;10231479;28;20049;-65
2021/05/09 02:04:12;;;;;;;4.47;2.72;;;;;;;;;;10233679;28;20053;-67
2021/05/09 02:09:08;;;;;;;4.40;2.35;;;;;;;;;;10233283;28;20052;-67
2021/05/09 02:14:04;;;;;;;4.88;2.60;;;;;;;;;;10239661;28;20124;-66
2021/05/09 02:19:00;;;;;;;4.97;2.60;;;;;;;;;;10243354;28;20065;-68
2021/05/09 02:23:56;;;;;;;5.05;2.80;;;;;;;;;;10240628;28;20499;-67
2021/05/09 02:28:52;;;;;;;4.70;2.22;;;;;;;;;;10222469;28;20037;-66
2021/05/09 02:33:48;;;;;;;5.93;2.88;;;;;;;;;;10227940;28;20037;-68
2021/05/09 02:38:44;;;;;;;5.57;2.70;;;;;;;;;;10216197;28;20455;-66
2021/05/09 02:43:40;;;;;;;6.85;3.25;;;;;;;;;;10228890;28;20056;-67
2021/05/09 02:48:35;;;;;;;5.35;2.60;;;;;;;;;;10222978;28;20061;-66
2021/05/09 02:53:31;;;;;;;4.32;2.40;;;;;;;;;;10227850;28;20046;-66
2021/05/09 02:58:27;;;;;;;4.30;2.38;;;;;;;;;;10221364;28;20714;-67
2021/05/09 03:03:23;;;;;;;4.47;2.67;;;;;;;;;;10229574;28;20058;-67
2021/05/09 03:08:20;;;;;;;5.00;2.45;;;;;;;;;;10232361;28;20050;-64
2021/05/09 03:13:16;;;;;;;4.15;2.60;;;;;;;;;;10235360;28;20073;-69
2021/05/09 03:18:11;;;;;;;5.95;2.80;;;;;;;;;;10236137;28;20415;-68
2021/05/09 03:23:07;;;;;;;6.40;2.90;;;;;;;;;;10236221;28;20108;-68
2021/05/09 03:28:03;;;;;;;6.13;3.08;;;;;;;;;;10240952;28;20450;-68
2021/05/09 03:32:59;;;;;;;5.60;2.60;;;;;;;;;;10222409;28;20049;-68
2021/05/09 03:37:55;;;;;;;5.80;2.72;;;;;;;;;;10227704;28;20045;-66
2021/05/09 03:42:51;;;;;;;6.13;2.55;;;;;;;;;;10231778;28;20478;-66
2021/05/09 03:47:48;;;;;;;5.13;2.80;;;;;;;;;;10232395;28;20049;-68
2021/05/09 03:52:44;;;;;;;4.70;2.75;;;;;;;;;;10233813;28;20056;-68
2021/05/09 03:57:39;;;;;;;5.90;2.10;;;;;;;;;;10234966;28;20056;-67
2021/05/09 04:02:35;;;;;;;4.97;2.63;;;;;;;;;;10223382;28;20049;-68
2021/05/09 04:07:31;;;;;;;7.05;2.92;;;;;;;;;;10220750;28;20048;-68
2021/05/09 04:12:27;;;;;;;5.18;2.60;;;;;;;;;;10210954;28;20046;-66
2021/05/09 04:17:24;;;;;;;4.55;2.53;;;;;;;;;;10211266;28;20049;-67
2021/05/09 04:22:20;;;;;;;4.63;2.40;;;;;;;;;;10219627;28;20073;-66
2021/05/09 04:27:20;;;;;;;5.28;2.08;;;;;;;;;;10201783;28;20678;-68
2021/05/09 04:32:16;;;;;;;4.28;2.25;;;;;;;;;;10208146;28;20049;-70
2021/05/09 04:37:12;;;;;;;6.03;2.38;;;;;;;;;;10229986;28;20508;-67
2021/05/09 04:42:08;;;;;;;4.97;2.38;;;;;;;;;;10228011;28;20065;-66
2021/05/09 04:47:04;;;;;;;3.60;2.05;;;;;;;;;;10230321;28;20044;-69
2021/05/09 04:52:00;;;;;;;5.20;2.33;;;;;;;;;;10241408;28;20052;-69
2021/05/09 04:56:55;;;;;;;4.70;2.33;;;;;;;;;;10239170;28;20597;-66
2021/05/09 05:01:51;;;;;;;5.55;2.50;;;;;;;;;;10240550;28;20110;-68
2021/05/09 05:06:47;;;;;;;6.07;2.10;;;;;;;;;;10245735;28;20045;-68
2021/05/09 05:11:44;;;;;;;6.07;2.10;;;;;;;;;;10242648;28;20579;-68
2021/05/09 05:16:39;;;;;;;5.15;2.40;;;;;;;;;;10240973;28;20132;-66
2021/05/09 05:21:35;;;;;;;4.03;2.30;;;;;;;;;;10229832;28;20045;-68
2021/05/09 05:26:31;;;;;;;4.53;2.13;;;;;;;;;;10230069;28;20058;-68
2021/05/09 05:31:27;;;;;;;4.47;2.10;;;;;;;;;;10233095;28;20045;-69
2021/05/09 05:36:23;;;;;;;4.32;2.40;;;;;;;;;;10223557;28;20052;-64
2021/05/09 05:41:19;;;;;;;5.45;2.30;;;;;;;;;;10233785;28;20057;-69
2021/05/09 05:46:14;;;;;;;5.28;2.17;;;;;;;;;;10232769;28;20079;-66
2021/05/09 05:51:10;;;;;;;5.57;2.33;;;;;;;;;;10229294;28;20046;-68
2021/05/09 05:56:06;;;;;;;5.88;2.00;;;;;;;;;;10237335;28;20049;-68
2021/05/09 06:01:02;;;;;;;5.65;2.33;;;;;;;;;;10240939;28;20073;-68
2021/05/09 06:05:58;;;;;;;5.68;2.03;;;;;;;;;;10216423;28;20050;-68
2021/05/09 06:10:54;;;;;;;5.30;1.95;;;;;;;;;;10210262;28;20041;-67
2021/05/09 06:15:50;;;;;;;4.32;1.85;;;;;;;;;;10211317;28;20495;-67
2021/05/09 06:20:46;;;;;;;4.22;1.80;;;;;;;;;;10215419;28;20068;-68
2021/05/09 06:25:47;;;;;;;4.03;1.75;;;;;;;;;;10198337;28;20586;-67
2021/05/09 06:30:43;;;;;;;4.25;1.88;;;;;;;;;;10201549;28;20045;-66
2021/05/09 06:35:40;;;;;;;3.92;1.95;;;;;;;;;;10203845;28;20049;-68
2021/05/09 06:40:37;;;;;;;6.35;1.88;;;;;;;;;;10215794;28;20591;-66
2021/05/09 06:45:34;;;;;;;4.68;1.75;;;;;;;;;;10214248;28;20129;-67
2021/05/09 06:50:31;;;;;;;4.43;1.60;;;;;;;;;;10213017;28;20057;-67
2021/05/09 06:55:27;;;;;;;4.20;1.60;;;;;;;;;;10220887;28;20056;-68
2021/05/09 07:00:23;;;;;;;4.28;1.65;;;;;;;;;;10213709;28;20053;-67
2021/05/09 07:05:19;;;;;;;5.00;1.60;;;;;;;;;;10220767;28;20119;-67
2021/05/09 07:10:15;;;;;;;4.68;1.67;;;;;;;;;;10203897;28;20044;-68
2021/05/09 07:15:12;;;;;;;3.50;1.65;;;;;;;;;;10214014;28;20050;-66
2021/05/09 07:20:09;;;;;;;5.30;1.98;;;;;;;;;;10205519;28;20085;-67
2021/05/09 07:25:05;;;;;;;3.10;1.23;;;;;;;;;;10215214;28;20057;-67
2021/05/09 07:30:01;;;;;;;4.80;1.48;;;;;;;;;;10220174;28;20055;-65
2021/05/09 07:34:57;;;;;;;6.03;1.77;;;;;;;;;;10201208;28;20124;-67
2021/05/09 07:39:53;;;;;;;5.88;1.67;;;;;;;;;;10212732;28;20443;-67
2021/05/09 07:44:53;;;;;;;6.10;1.80;;;;;;;;;;10212254;28;20048;-65
2021/05/09 07:49:49;;;;;;;6.70;1.85;;;;;;;;;;10203553;28;20049;-67
2021/05/09 07:54:45;;;;;;;2.63;1.20;;;;;;;;;;10204092;28;20670;-67
2021/05/09 07:59:41;;;;;;;4.88;1.88;;;;;;;;;;10198420;28;20038;-67
2021/05/09 08:04:41;;;;;;;6.22;1.90;;;;;;;;;;10206447;28;20049;-67
2021/05/09 08:09:37;;;;;;;4.75;1.67;;;;;;;;;;10205219;28;20045;-66
2021/05/09 08:14:33;;;;;;;5.20;1.63;;;;;;;;;;10205763;28;20045;-66
2021/05/09 08:19:29;;;;;;;4.50;1.55;;;;;;;;;;10207124;28;20042;-66
2021/05/09 08:24:24;;;;;;;3.22;1.50;;;;;;;;;;10216644;28;20045;-65
2021/05/09 08:29:20;;;;;;;3.40;1.45;;;;;;;;;;10202986;28;20579;-69
2021/05/09 08:34:16;;;;;;;3.88;1.35;;;;;;;;;;10215043;28;20073;-69
2021/05/09 08:39:12;;;;;;;6.03;1.45;;;;;;;;;;10213109;28;20041;-68
2021/05/09 08:44:09;;;;;;;3.75;1.50;;;;;;;;;;10202559;28;20050;-67
2021/05/09 08:49:05;;;;;;;4.53;1.60;;;;;;;;;;10209330;28;20132;-68
2021/05/09 08:54:01;;;;;;;3.88;1.27;;;;;;;;;;10201870;28;20061;-69
2021/05/09 08:58:57;;;;;;;3.28;1.38;;;;;;;;;;10210047;28;20637;-67
2021/05/09 09:03:53;;;;;;;5.07;1.80;;;;;;;;;;10205621;28;20108;-66
2021/05/09 09:08:49;;;;;;;5.22;1.63;;;;;;;;;;10200122;28;20504;-66
2021/05/09 09:13:45;;;;;;;4.80;1.55;;;;;;;;;;10214946;28;20037;-68
2021/05/09 09:18:42;;;;;;;4.40;1.75;;;;;;;;;;10208310;28;20037;-67
2021/05/09 09:23:44;;;;;;;3.40;1.40;;;;;;;;;;10218680;28;20492;-68
2021/05/09 09:28:40;;;;;;;8.80;1.70;;;;;;;;;;10205080;28;20056;-67
2021/05/09 09:33:48;;;;;;;6.75;1.50;;;;;;;;;;10204114;28;20042;-66
2021/05/09 09:38:56;;;;;;;4.32;1.60;;;;;;;;;;10217421;28;20103;-67
2021/05/09 09:44:06;;;;;;;5.55;1.85;;;;;;;;;;10213248;28;20052;-67
2021/05/09 09:49:04;;;;;;;4.88;1.20;;;;;;;;;;10207324;28;20049;-68
2021/05/09 09:54:00;;;;;;;3.92;1.63;;;;;;;;;;10214530;28;20133;-68
2021/05/09 09:58:57;;;;;;;5.28;1.73;;;;;;;;;;10210655;28;20100;-65
2021/05/09 10:03:54;;;;;;;4.38;1.40;;;;;;;;;;10204159;28;20116;-66
2021/05/09 10:08:51;;;;;;;2.83;1.20;;;;;;;;;;10206640;28;20045;-68
2021/05/09 10:13:47;;;;;;;4.13;1.10;;;;;;;;;;10199808;28;20466;-67
2021/05/09 10:18:48;;;;;;;4.55;1.40;;;;;;;;;;10208174;28;20073;-67
2021/05/09 10:24:07;;;;;;;3.45;1.33;;;;;;;;;;10203614;28;20049;-66
2021/05/09 10:29:03;;;;;;;4.82;1.23;;;;;;;;;;10210521;28;20091;-72
2021/05/09 10:33:59;;;;;;;5.00;1.15;;;;;;;;;;10211807;28;20041;-66
2021/05/09 10:39:08;;;;;;;5.32;1.45;;;;;;;;;;10217204;28;20049;-68
2021/05/09 10:44:40;;;;;;;5.72;1.40;;;;;;;;;;10198151;28;20049;-68
2021/05/09 10:49:36;;;;;;;4.80;1.00;;;;;;;;;;10159612;28;20041;-68
2021/05/09 10:54:41;;;;;;;5.50;1.00;;;;;;;;;;10205662;28;20038;-68
2021/05/09 10:59:56;;;;;;;3.90;1.08;;;;;;;;;;10193251;28;20125;-68
2021/05/09 11:04:52;;;;;;;3.55;1.10;;;;;;;;;;10197025;28;20061;-67
2021/05/09 11:09:47;;;;;;;4.55;1.20;;;;;;;;;;10197245;28;20499;-70
2021/05/09 11:14:43;;;;;;;3.80;1.20;;;;;;;;;;10207341;28;20071;-67
2021/05/09 11:19:44;;;;;;;6.28;3.00;;;;;;;;;;10204569;28;20045;-67
2021/05/09 11:24:40;;;;;;;5.07;1.35;;;;;;;;;;10197243;28;20053;-66
2021/05/09 11:29:39;;;;;;;4.20;1.10;;;;;;;;;;10202617;28;20053;-67
2021/05/09 11:34:35;;;;;;;8.90;1.45;;;;;;;;;;10200445;28;20046;-66
2021/05/09 11:39:36;;;;;;;3.78;1.05;;;;;;;;;;10188033;28;20037;-68
2021/05/09 11:44:35;;;;;;;1.60;0.68;;;;;;;;;;10193258;28;20048;-67
2021/05/09 11:49:34;;;;;;;3.50;1.10;;;;;;;;;;10200712;28;20092;-66
2021/05/09 11:54:31;;;;;;;4.65;1.05;;;;;;;;;;10210232;28;20095;-67
2021/05/09 11:59:43;;;;;;;4.97;1.80;;;;;;;;;;10190576;28;20407;-67
2021/05/09 12:04:39;;;;;;;4.65;1.05;;;;;;;;;;10195233;28;20092;-67
2021/05/09 12:09:35;;;;;;;4.78;1.33;;;;;;;;;;10190640;28;20528;-67
2021/05/09 12:14:32;;;;;;;6.93;1.85;;;;;;;;;;10199655;28;20129;-67
2021/05/09 12:19:35;;;;;;;3.10;1.08;;;;;;;;;;10216627;28;20069;-68
2021/05/09 12:24:46;;;;;;;3.78;0.98;;;;;;;;;;10195400;28;20184;-66
2021/05/09 12:29:43;;;;;;;3.22;1.27;;;;;;;;;;10187299;28;20045;-65
2021/05/09 12:34:39;;;;;;;3.17;0.85;;;;;;;;;;10206153;28;20045;-65
2021/05/09 12:39:35;;;;;;;2.65;1.00;;;;;;;;;;10215816;28;20614;-66
2021/05/09 12:44:31;;;;;;;4.13;1.52;;;;;;;;;;10202177;28;20663;-66
2021/05/09 12:49:32;;;;;;;2.75;1.02;;;;;;;;;;10205616;28;20061;-66
2021/05/09 12:54:44;;;;;;;3.13;1.23;;;;;;;;;;10215734;28;20092;-65
2021/05/09 12:59:47;;;;;;;4.22;0.98;;;;;;;;;;10234678;28;20135;-65
2021/05/09 13:04:52;;;;;;;5.72;1.45;;;;;;;;;;10246321;28;20041;-67
2021/05/09 13:09:49;;;;;;;3.38;1.10;;;;;;;;;;10227174;28;20132;-65
2021/05/09 13:14:46;;;;;;;4.68;1.00;;;;;;;;;;10238462;28;20068;-66
2021/05/09 13:19:42;;;;;;;3.65;1.63;;;;;;;;;;10237776;28;20040;-66
2021/05/09 13:24:42;;;;;;;3.35;1.17;;;;;;;;;;10238297;28;20146;-66
2021/05/09 13:29:38;;;;;;;3.20;1.05;;;;;;;;;;10231596;28;20045;-65
2021/05/09 13:34:34;;;;;;;3.20;1.02;;;;;;;;;;10241193;28;20049;-65
2021/05/09 13:39:30;;;;;;;3.10;1.00;;;;;;;;;;10222585;28;20500;-66
2021/05/09 13:44:25;;;;;;;4.35;1.23;;;;;;;;;;10209202;28;20072;-64
2021/05/09 13:49:21;;;;;;;3.42;1.17;;;;;;;;;;10218722;28;20049;-66
2021/05/09 13:54:18;;;;;;;2.85;0.90;;;;;;;;;;10221720;28;20046;-64
2021/05/09 13:59:14;;;;;;;3.45;1.52;;;;;;;;;;10216047;28;20688;-67
2021/05/09 14:04:10;;;;;;;2.35;0.95;;;;;;;;;;10216900;28;20500;-66
2021/05/09 14:09:07;;;;;;;3.67;0.98;;;;;;;;;;10223831;28;20142;-66
2021/05/09 14:14:03;;;;;;;2.38;0.98;;;;;;;;;;10209737;28;20045;-66
2021/05/09 14:18:59;;;;;;;2.97;0.80;;;;;;;;;;10215583;28;20056;-66
2021/05/09 14:23:54;;;;;;;2.08;0.80;;;;;;;;;;10213123;28;20049;-67
2021/05/09 14:28:50;;;;;;;1.98;0.73;;;;;;;;;;10212320;28;20130;-66
2021/05/09 14:33:46;;;;;;;3.45;0.88;;;;;;;;;;10209711;28;20052;-65
2021/05/09 14:38:42;;;;;;;2.72;0.90;;;;;;;;;;10213808;28;20045;-66
2021/05/09 14:43:38;;;;;;;1.58;0.60;;;;;;;;;;10225824;28;20045;-65
2021/05/09 14:48:34;;;;;;;2.47;0.77;;;;;;;;;;10234860;28;20086;-66
2021/05/09 14:53:30;;;;;;;2.47;0.90;;;;;;;;;;10214673;28;20452;-67
2021/05/09 14:58:26;;;;;;;3.53;1.02;;;;;;;;;;10219444;28;20041;-67
2021/05/09 15:03:22;;;;;;;3.92;1.13;;;;;;;;;;10208689;28;20491;-69
2021/05/09 15:08:18;;;;;;;3.25;0.85;;;;;;;;;;10200854;28;20037;-67
2021/05/09 15:13:14;;;;;;;3.38;0.82;;;;;;;;;;10199637;28;20041;-68
2021/05/09 15:18:10;;;;;;;4.55;0.98;;;;;;;;;;10196825;28;20050;-68
2021/05/09 15:23:05;;;;;;;3.47;1.17;;;;;;;;;;10199176;28;20045;-68
2021/05/09 15:28:01;;;;;;;5.07;0.90;;;;;;;;;;10198812;28;20042;-69
2021/05/09 15:32:57;;;;;;;2.55;0.95;;;;;;;;;;10209537;28;20518;-67
2021/05/09 15:37:58;;;;;;;3.15;1.00;;;;;;;;;;10206716;28;20054;-67
2021/05/09 15:42:54;;;;;;;5.47;1.38;;;;;;;;;;10208619;28;20095;-67
2021/05/09 15:47:49;;;;;;;4.00;1.38;;;;;;;;;;10206805;28;20072;-68
2021/05/09 15:52:46;;;;;;;2.45;1.15;;;;;;;;;;10213121;28;20054;-69
2021/05/09 15:57:42;;;;;;;2.75;0.93;;;;;;;;;;10217345;28;20408;-66
2021/05/09 16:02:38;;;;;;;3.33;1.30;;;;;;;;;;10205921;28;20050;-67
2021/05/09 16:07:34;;;;;;;4.68;1.40;;;;;;;;;;10208571;28;20076;-68
2021/05/09 16:12:30;;;;;;;5.18;1.40;;;;;;;;;;10204654;28;20101;-65
2021/05/09 16:17:26;;;;;;;3.70;1.10;;;;;;;;;;10203026;28;20138;-68
2021/05/09 16:22:24;;;;;;;4.07;1.30;;;;;;;;;;10201666;28;20095;-66
2021/05/09 16:27:20;;;;;;;5.20;1.20;;;;;;;;;;10203534;28;20096;-68
2021/05/09 16:32:16;;;;;;;3.38;1.10;;;;;;;;;;10205318;28;20053;-68
2021/05/09 16:37:12;;;;;;;3.45;1.38;;;;;;;;;;10216658;28;20507;-67
2021/05/09 16:42:09;;;;;;;5.25;1.65;;;;;;;;;;10206999;28;20073;-68
2021/05/09 16:47:05;;;;;;;3.67;1.35;;;;;;;;;;10209759;28;20401;-67
2021/05/09 16:52:01;;;;;;;4.07;1.52;;;;;;;;;;10208122;28;20100;-68
2021/05/09 16:56:57;;;;;;;5.35;1.23;;;;;;;;;;10204887;28;20560;-68
2021/05/09 17:06:06;;;;;;;3.92;1.30;;;;;;;;;;10297321;27;20568;-68
2021/05/09 17:11:02;;;;;;;5.00;1.52;;;;;;;;;;10269230;28;20072;-68
2021/05/09 17:15:58;;;;;;;4.53;1.90;;;;;;;;;;10267958;28;20507;-67
2021/05/09 17:20:54;;;;;;;3.90;2.10;;;;;;;;;;10254948;28;20041;-69
2021/05/09 17:25:51;;;;;;;4.03;1.60;;;;;;;;;;10263162;28;20049;-67
2021/05/09 17:30:47;;;;;;;2.88;1.15;;;;;;;;;;10252066;28;20049;-66
2021/05/09 17:35:43;;;;;;;3.85;1.50;;;;;;;;;;10257069;28;20302;-66
2021/05/09 17:40:39;;;;;;;3.65;1.55;;;;;;;;;;10255966;28;20045;-66
2021/05/09 17:45:37;;;;;;;4.15;1.80;;;;;;;;;;10262379;28;20064;-63
2021/05/09 17:50:33;;;;;;;2.90;1.55;;;;;;;;;;10255224;28;20069;-67
2021/05/09 17:55:29;;;;;;;4.85;2.03;;;;;;;;;;10257230;28;20053;-68
2021/05/09 18:00:24;;;;;;;3.90;2.35;;;;;;;;;;10261938;28;20147;-66
2021/05/09 18:05:21;;;;;;;3.85;1.75;;;;;;;;;;10256109;28;20239;-67
2021/05/09 18:10:20;;;;;;;4.75;2.00;;;;;;;;;;10264089;28;20511;-67
2021/05/09 18:15:26;;;;;;;5.47;1.80;;;;;;;;;;10258559;28;20073;-66
2021/05/09 18:22:33;;;;;;;4.05;1.60;;;;;;;;;;10224230;28;20485;-67
2021/05/09 18:25:49;;;;;;;5.43;2.08;;;;;;;;;;10239646;28;20048;-66
2021/05/09 18:30:45;;;;;;;4.50;1.65;;;;;;;;;;10243538;28;20862;-66
2021/05/09 18:35:41;;;;;;;4.78;1.58;;;;;;;;;;10245242;28;20037;-65
2021/05/09 18:40:37;;;;;;;3.58;1.85;;;;;;;;;;10244210;28;20045;-66
2021/05/09 18:45:33;;;;;;;4.63;1.70;;;;;;;;;;10239368;28;20757;-65
2021/05/09 18:50:35;;;;;;;4.28;1.80;;;;;;;;;;10238765;28;20049;-67
2021/05/09 18:55:31;;;;;;;6.10;2.75;;;;;;;;;;10233328;28;20053;-65
2021/05/09 19:00:27;;;;;;;4.35;2.35;;;;;;;;;;10233531;28;20084;-66
2021/05/09 19:05:32;;;;;;;6.35;2.17;;;;;;;;;;10226239;28;20046;-67
2021/05/09 19:10:28;;;;;;;5.20;2.20;;;;;;;;;;10229880;28;20396;-64
2021/05/09 19:15:24;;;;;;;4.03;1.95;;;;;;;;;;10237522;28;20065;-67
2021/05/09 19:20:20;;;;;;;5.32;1.90;;;;;;;;;;10227395;28;20136;-66
2021/05/09 19:25:16;;;;;;;3.08;1.75;;;;;;;;;;10238755;28;20044;-66
2021/05/09 19:30:12;;;;;;;4.68;1.77;;;;;;;;;;10232425;28;20045;-66
2021/05/09 19:35:08;;;;;;;5.15;2.03;;;;;;;;;;10250588;28;20045;-67
2021/05/09 19:40:04;;;;;;;5.15;2.10;;;;;;;;;;10235560;28;20075;-68
2021/05/09 19:45:00;;;;;;;4.80;1.65;;;;;;;;;;10244466;28;20696;-66
2021/05/09 19:49:56;;;;;;;5.25;2.35;;;;;;;;;;10230340;28;20041;-67
2021/05/09 19:54:52;;;;;;;7.00;1.75;;;;;;;;;;10224879;28;20122;-66
2021/05/09 19:59:48;;;;;;;4.55;1.75;;;;;;;;;;10217567;28;20054;-66
2021/05/09 20:04:44;;;;;;;3.58;1.88;;;;;;;;;;10243732;28;20753;-69
2021/05/09 20:09:40;;;;;;;3.67;1.70;;;;;;;;;;10218098;28;20076;-67
2021/05/09 20:14:36;;;;;;;6.63;4.20;;;;;;;;;;10217735;28;20173;-67
2021/05/09 20:19:32;;;;;;;4.35;2.35;;;;;;;;;;10227580;28;20045;-67
2021/05/09 20:24:27;;;;;;;4.28;2.08;;;;;;;;;;10220117;28;20056;-68
2021/05/09 20:29:26;;;;;;;5.63;2.17;;;;;;;;;;10228593;28;20103;-68
2021/05/09 20:34:22;;;;;;;6.65;2.30;;;;;;;;;;10221523;28;20045;-68
2021/05/09 20:39:19;;;;;;;4.82;1.60;;;;;;;;;;10220210;28;20042;-67
2021/05/09 20:44:15;;;;;;;5.13;1.73;;;;;;;;;;10228940;28;20075;-68
2021/05/09 20:49:11;;;;;;;5.32;1.70;;;;;;;;;;10240467;28;20041;-67
2021/05/09 20:54:07;;;;;;;4.22;1.85;;;;;;;;;;10221560;28;20478;-68
2021/05/09 20:59:03;;;;;;;7.75;2.10;;;;;;;;;;10226709;28;20114;-68
2021/05/09 21:03:59;;;;;;;4.05;1.98;;;;;;;;;;10230383;28;20045;-67
2021/05/09 21:08:55;;;;;;;4.65;2.20;;;;;;;;;;10220867;28;20095;-67
2021/05/09 21:13:50;;;;;;;3.70;1.63;;;;;;;;;;10225654;28;20080;-67
2021/05/09 21:18:46;;;;;;;5.55;2.00;;;;;;;;;;10219775;28;20053;-68
2021/05/09 21:23:42;;;;;;;4.32;2.00;;;;;;;;;;10221651;28;20040;-69
2021/05/09 21:28:38;;;;;;;3.40;1.77;;;;;;;;;;10232695;28;20050;-69
2021/05/09 21:33:34;;;;;;;3.83;1.70;;;;;;;;;;10248652;28;20049;-68
2021/05/09 21:38:30;;;;;;;3.17;1.90;;;;;;;;;;10266815;28;20418;-68
2021/05/09 21:43:26;;;;;;;5.90;2.17;;;;;;;;;;10260258;28;20044;-67
2021/05/09 21:48:22;;;;;;;4.38;2.20;;;;;;;;;;10275456;28;20152;-68
2021/05/09 21:53:18;;;;;;;3.20;1.60;;;;;;;;;;10271597;28;20045;-68
2021/05/09 21:58:13;;;;;;;5.15;2.25;;;;;;;;;;10267833;28;20077;-69
2021/05/09 22:03:11;;;;;;;4.22;1.60;;;;;;;;;;10267167;28;20578;-69
2021/05/09 22:08:10;;;;;;;5.95;1.85;;;;;;;;;;10274048;28;20534;-68
2021/05/09 22:13:06;;;;;;;5.13;1.85;;;;;;;;;;10267858;28;20061;-67
2021/05/09 22:18:03;;;;;;;4.45;1.95;;;;;;;;;;10267309;28;20821;-68
2021/05/09 22:23:02;;;;;;;3.65;2.20;;;;;;;;;;10273405;28;20103;-67
2021/05/09 22:27:57;;;;;;;3.75;1.80;;;;;;;;;;10276639;28;20033;-66
2021/05/09 22:32:53;;;;;;;3.55;1.70;;;;;;;;;;10274149;28;20646;-68
2021/05/09 22:37:49;;;;;;;5.50;2.22;;;;;;;;;;10272475;28;20052;-66
2021/05/09 22:42:45;;;;;;;3.35;1.90;;;;;;;;;;10268287;28;20499;-68
2021/05/09 22:47:41;;;;;;;6.20;3.13;;;;;;;;;;10277126;28;20092;-69
2021/05/09 22:52:37;;;;;;;3.92;2.17;;;;;;;;;;10266259;28;20077;-68
2021/05/09 22:57:33;;;;;;;5.40;1.90;;;;;;;;;;10270574;28;20045;-68
2021/05/09 23:02:29;;;;;;;4.63;2.05;;;;;;;;;;10250166;28;20117;-67
2021/05/09 23:07:25;;;;;;;3.67;1.85;;;;;;;;;;10268689;28;20079;-68
2021/05/09 23:12:21;;;;;;;4.05;1.92;;;;;;;;;;10263030;28;20045;-65
2021/05/09 23:17:18;;;;;;;4.13;1.52;;;;;;;;;;10269039;28;20049;-68
2021/05/09 23:22:14;;;;;;;5.25;2.13;;;;;;;;;;10273152;28;20098;-69
2021/05/09 23:27:10;;;;;;;5.07;2.20;;;;;;;;;;10265836;28;20124;-68
2021/05/09 23:32:06;;;;;;;5.97;1.95;;;;;;;;;;10265661;28;20068;-67
2021/05/09 23:37:02;;;;;;;3.90;1.63;;;;;;;;;;10270546;28;20135;-69
2021/05/09 23:41:59;;;;;;;3.88;1.90;;;;;;;;;;10271637;28;20434;-66
2021/05/09 23:46:54;;;;;;;4.90;1.65;;;;;;;;;;10261468;28;20064;-68
2021/05/09 23:51:51;;;;;;;4.30;1.83;;;;;;;;;;10263894;28;20037;-67
2021/05/09 23:56:47;;;;;;;4.18;1.88;;;;;;;;;;10258650;28;20079;-67
